METAR Data
IDs: Format: Raw Decoded Include TAF

Data at: 1302 UTC 21 Oct 2018

KSJT 211251Z 05005KT 10SM CLR 08/06 A3035 RMK AO2 SLP273 T00780061
KSJT 211151Z 00000KT 10SM CLR 08/07 A3034 RMK AO2 SLP270 T00830067 10133 20067 55002
KSJT 211051Z AUTO 04007KT 10SM CLR 08/07 A3033 RMK AO2 SLP265 T00780067
KSJT 210951Z AUTO 00000KT 10SM CLR 08/06 A3034 RMK AO2 SLP269 T00780061
KSJT 210851Z AUTO 00000KT 10SM CLR 09/07 A3035 RMK AO2 SLP270 T00890072 56004
KSJT 210751Z AUTO 00000KT 10SM SCT110 09/07 A3035 RMK AO2 SLP270 T00940072
KSJT 210651Z AUTO 07003KT 10SM FEW100 11/08 A3035 RMK AO2 SLP268 T01060083
KSJT 210551Z AUTO 04003KT 10SM OVC110 13/08 A3036 RMK AO2 SLP272 T01330083 10183 20128 402170128 51008
KSJT 210451Z AUTO 02005KT 10SM CLR 13/08 A3036 RMK AO2 SLP272 T01330083
KSJT 210351Z AUTO 03008KT 10SM FEW110 14/09 A3035 RMK AO2 SLP269 T01440089
KSJT 210251Z AUTO 03008KT 10SM CLR 16/12 A3033 RMK AO2 SLP263 T01560117 53014
KSJT 210151Z AUTO 03004KT 10SM CLR 16/12 A3032 RMK AO2 SLP258 T01560122
KSJT 210051Z 01006KT 10SM CLR 16/12 A3030 RMK AO2 SLP252 T01610122
KSJT 202351Z 02008KT 10SM CLR 18/11 A3029 RMK AO2 SLP247 T01830111 10217 20183 53012
KSJT 202251Z 02011KT 10SM FEW034 BKN110 20/13 A3027 RMK AO2 SLP242 T02000133
KSJT 202151Z 04008KT 10SM FEW100 21/13 A3027 RMK AO2 SLP238 T02110133
KSJT 202051Z 04009KT 10SM OVC100 21/13 A3026 RMK AO2 SLP234 T02110133 55008
KSJT 201951Z 03009KT 10SM OVC100 21/14 A3025 RMK AO2 SLP233 T02110139
KSJT 201851Z 03009KT 10SM FEW100 20/14 A3027 RMK AO2 SLP240 T02000139
KSJT 201751Z 04010KT 10SM OVC100 19/14 A3028 RMK AO2 SLP244 T01890139 10189 20139 50001
KSJT 201651Z 04012KT 10SM CLR 18/14 A3029 RMK AO2 SLP248 T01830144
KSJT 201551Z 02007KT 10SM CLR 18/14 A3029 RMK AO2 SLP249 T01780144
KSJT 201451Z 06003KT 10SM FEW100 17/14 A3028 RMK AO2 SLP245 T01670144 53019
KSJT 201351Z 00000KT 10SM CLR 15/14 A3025 RMK AO2 SLP236 T01500139
KSJT 201251Z 00000KT 8SM FEW080 OVC100 14/13 A3024 RMK AO2 SLP232 T01440133
KSJT 201151Z AUTO 29003KT 10SM OVC080 14/13 A3022 RMK AO2 SLP226 70021 T01440133 10144 20139 53012
KSJT 201051Z AUTO 30004KT 10SM SCT060 OVC075 14/13 A3019 RMK AO2 SLP217 T01440133
KSJT 200951Z AUTO 24004KT 10SM SCT050 OVC120 14/13 A3019 RMK AO2 SLP213 T01440133
KSJT 200851Z AUTO 00000KT 10SM BKN075 OVC110 14/13 A3018 RMK AO2 SLP213 T01440133 58001
KSJT 200751Z AUTO 28003KT 10SM BKN070 OVC110 14/13 A3019 RMK AO2 SLP216 T01440133
KSJT 200651Z AUTO 26004KT 10SM BKN065 OVC110 14/13 A3019 RMK AO2 SLP215 T01390133
KSJT 200551Z AUTO 00000KT 10SM SCT095 OVC110 14/13 A3018 RMK AO2 SLP215 T01440133 10156 20144 401670117 58003
KSJT 200451Z AUTO 21003KT 10SM BKN095 OVC110 14/13 A3019 RMK AO2 SLP216 T01440133
KSJT 200351Z AUTO 19004KT 10SM FEW075 OVC110 14/13 A3020 RMK AO2 SLP220 T01440133
KSJT 200251Z AUTO 18004KT 10SM OVC100 14/13 A3019 RMK AO2 SLP218 T01440133 51005
KSJT 200151Z AUTO 00000KT 10SM OVC100 15/14 A3019 RMK AO2 SLP218 T01500139
KSJT 200107Z 14003KT 10SM SCT014 OVC100 14/13 A3018 RMK AO2 T01440133